UTA9472 UWKD-UUWW
Flight info
| Callsign | UTA9472 |
|---|---|
| Flight time | 1h 17m |
| Altitude | 38000 |
| Route | APTAR1G APTAR L158 DIMGI DIMGI3A |
| Aircraft | B752/M-SDFGHIRWY/LB1 |
Departure
| Time | 2026-05-07 19:08 |
|---|---|
| Airport | Kazan International Airport (UWKD) |
Arrival
| Time | 2026-05-07 20:25 |
|---|---|
| Airport | Vnukovo International Airport (UUWW) |
| Time | Latitude | Longitude | Altitude | Speed | Heading |
|---|---|---|---|---|---|
| 2026-05-07 18:11 | 55.60783 | 49.29757 | 420 ft | 0 kts | 34° |
| 2026-05-07 18:45 | 55.60783 | 49.29756 | 421 ft | 0 kts | 34° |
| 2026-05-07 18:45 | 55.60772 | 49.29743 | 421 ft | 2 kts | 34° |
| 2026-05-07 18:45 | 55.60759 | 49.29728 | 421 ft | 2 kts | 34° |
| 2026-05-07 18:45 | 55.60747 | 49.29713 | 421 ft | 2 kts | 27° |
| 2026-05-07 18:46 | 55.60738 | 49.29706 | 421 ft | 2 kts | 13° |
| 2026-05-07 18:46 | 55.60723 | 49.29703 | 421 ft | 2 kts | 358° |
| 2026-05-07 18:46 | 55.60708 | 49.29700 | 421 ft | 2 kts | 23° |
| 2026-05-07 18:46 | 55.60692 | 49.29681 | 421 ft | 2 kts | 37° |
| 2026-05-07 18:47 | 55.60680 | 49.29666 | 421 ft | 1 kts | 34° |
| 2026-05-07 18:47 | 55.60678 | 49.29664 | 421 ft | 0 kts | 34° |
| 2026-05-07 18:50 | 55.60693 | 49.29681 | 421 ft | 3 kts | 34° |
| 2026-05-07 18:50 | 55.60709 | 49.29696 | 421 ft | 4 kts | 17° |
| 2026-05-07 18:50 | 55.60736 | 49.29680 | 421 ft | 5 kts | 311° |
| 2026-05-07 18:51 | 55.60761 | 49.29614 | 421 ft | 7 kts | 303° |
| 2026-05-07 18:51 | 55.60802 | 49.29507 | 421 ft | 8 kts | 301° |
| 2026-05-07 18:51 | 55.60809 | 49.29428 | 421 ft | 5 kts | 240° |
| 2026-05-07 18:51 | 55.60774 | 49.29379 | 421 ft | 7 kts | 214° |
| 2026-05-07 18:52 | 55.60744 | 49.29344 | 421 ft | 7 kts | 214° |
| 2026-05-07 18:52 | 55.60679 | 49.29266 | 421 ft | 9 kts | 214° |
| 2026-05-07 18:52 | 55.60643 | 49.29223 | 421 ft | 9 kts | 214° |
| 2026-05-07 18:52 | 55.60591 | 49.29138 | 421 ft | 11 kts | 240° |
| 2026-05-07 18:53 | 55.60582 | 49.28917 | 421 ft | 16 kts | 274° |
| 2026-05-07 18:53 | 55.60590 | 49.28711 | 421 ft | 17 kts | 274° |
| 2026-05-07 18:53 | 55.60632 | 49.28518 | 421 ft | 17 kts | 303° |
| 2026-05-07 18:53 | 55.60677 | 49.28403 | 421 ft | 17 kts | 304° |
| 2026-05-07 18:54 | 55.60751 | 49.28214 | 421 ft | 20 kts | 305° |
| 2026-05-07 18:54 | 55.60834 | 49.27998 | 421 ft | 21 kts | 304° |
| 2026-05-07 18:54 | 55.60950 | 49.27703 | 421 ft | 21 kts | 304° |
| 2026-05-07 18:54 | 55.61035 | 49.27479 | 421 ft | 21 kts | 304° |
| 2026-05-07 18:55 | 55.61121 | 49.27259 | 421 ft | 21 kts | 304° |
| 2026-05-07 18:55 | 55.61177 | 49.27115 | 421 ft | 20 kts | 304° |
| 2026-05-07 18:55 | 55.61225 | 49.26968 | 421 ft | 8 kts | 271° |
| 2026-05-07 18:55 | 55.61195 | 49.26898 | 421 ft | 4 kts | 214° |
| 2026-05-07 18:56 | 55.61187 | 49.26888 | 421 ft | 0 kts | 214° |
| 2026-05-07 19:05 | 55.61179 | 49.26879 | 421 ft | 3 kts | 214° |
| 2026-05-07 19:06 | 55.61160 | 49.26855 | 421 ft | 7 kts | 214° |
| 2026-05-07 19:07 | 55.61052 | 49.26781 | 421 ft | 0 kts | 124° |
| 2026-05-07 19:07 | 55.61051 | 49.26784 | 421 ft | 3 kts | 124° |
| 2026-05-07 19:07 | 55.60973 | 49.26980 | 421 ft | 37 kts | 124° |
| 2026-05-07 19:08 | 55.60726 | 49.27626 | 421 ft | 95 kts | 126° |
| 2026-05-07 19:08 | 55.60212 | 49.28949 | 452 ft | 162 kts | 123° |
| 2026-05-07 19:08 | 55.59535 | 49.30728 | 1079 ft | 184 kts | 121° |
| 2026-05-07 19:08 | 55.58847 | 49.32527 | 2254 ft | 181 kts | 123° |
| 2026-05-07 19:09 | 55.58117 | 49.34302 | 3146 ft | 181 kts | 122° |
| 2026-05-07 19:09 | 55.57437 | 49.36071 | 3937 ft | 175 kts | 122° |
| 2026-05-07 19:09 | 55.56750 | 49.37841 | 4708 ft | 175 kts | 121° |
| 2026-05-07 19:09 | 55.56038 | 49.39676 | 5324 ft | 190 kts | 122° |
| 2026-05-07 19:10 | 55.55217 | 49.41621 | 5867 ft | 210 kts | 134° |
| 2026-05-07 19:10 | 55.53847 | 49.42961 | 5997 ft | 248 kts | 165° |
| 2026-05-07 19:10 | 55.52101 | 49.42928 | 5922 ft | 254 kts | 197° |
| 2026-05-07 19:10 | 55.50602 | 49.41366 | 5981 ft | 250 kts | 221° |
| 2026-05-07 19:11 | 55.49259 | 49.39394 | 5989 ft | 252 kts | 216° |
| 2026-05-07 19:11 | 55.47858 | 49.37656 | 6334 ft | 248 kts | 214° |
| 2026-05-07 19:11 | 55.46381 | 49.35948 | 6706 ft | 255 kts | 212° |
| 2026-05-07 19:11 | 55.44888 | 49.34310 | 7083 ft | 254 kts | 211° |
| 2026-05-07 19:12 | 55.43364 | 49.32685 | 7464 ft | 256 kts | 211° |
| 2026-05-07 19:12 | 55.41866 | 49.30993 | 7857 ft | 259 kts | 223° |
| 2026-05-07 19:12 | 55.40748 | 49.28365 | 7883 ft | 289 kts | 248° |
| 2026-05-07 19:12 | 55.40400 | 49.24857 | 8049 ft | 296 kts | 274° |
| 2026-05-07 19:13 | 55.40673 | 49.21287 | 7947 ft | 287 kts | 280° |
| 2026-05-07 19:13 | 55.40951 | 49.17886 | 7939 ft | 281 kts | 279° |
| 2026-05-07 19:13 | 55.41206 | 49.14465 | 7959 ft | 284 kts | 278° |
| 2026-05-07 19:13 | 55.41456 | 49.10991 | 7958 ft | 284 kts | 278° |
| 2026-05-07 19:14 | 55.41694 | 49.07575 | 7949 ft | 283 kts | 278° |
| 2026-05-07 19:14 | 55.41932 | 49.04099 | 7934 ft | 283 kts | 278° |
| 2026-05-07 19:14 | 55.42164 | 49.00678 | 7950 ft | 282 kts | 278° |
| 2026-05-07 19:14 | 55.42399 | 48.97183 | 8239 ft | 294 kts | 278° |
| 2026-05-07 19:15 | 55.42630 | 48.93702 | 9428 ft | 285 kts | 278° |
| 2026-05-07 19:15 | 55.42863 | 48.90208 | 10200 ft | 291 kts | 278° |
| 2026-05-07 19:15 | 55.43098 | 48.86651 | 10783 ft | 303 kts | 278° |
| 2026-05-07 19:15 | 55.43348 | 48.82858 | 11305 ft | 318 kts | 278° |
| 2026-05-07 19:16 | 55.43603 | 48.78946 | 11819 ft | 333 kts | 277° |
| 2026-05-07 19:16 | 55.43875 | 48.74746 | 12341 ft | 350 kts | 277° |
| 2026-05-07 19:16 | 55.44155 | 48.70409 | 12846 ft | 365 kts | 277° |
| 2026-05-07 19:16 | 55.44442 | 48.65937 | 13366 ft | 369 kts | 277° |
| 2026-05-07 19:17 | 55.44727 | 48.61456 | 14167 ft | 368 kts | 277° |
| 2026-05-07 19:17 | 55.45008 | 48.57023 | 15026 ft | 371 kts | 277° |
| 2026-05-07 19:17 | 55.45437 | 48.52573 | 15878 ft | 372 kts | 286° |
| 2026-05-07 19:17 | 55.46199 | 48.48210 | 16758 ft | 374 kts | 287° |
| 2026-05-07 19:18 | 55.46950 | 48.43851 | 17619 ft | 375 kts | 288° |
| 2026-05-07 19:18 | 55.47727 | 48.39367 | 18047 ft | 389 kts | 288° |
| 2026-05-07 19:18 | 55.48520 | 48.34784 | 18305 ft | 394 kts | 287° |
| 2026-05-07 19:18 | 55.49316 | 48.30184 | 18579 ft | 392 kts | 287° |
| 2026-05-07 19:19 | 55.50119 | 48.25531 | 18967 ft | 395 kts | 287° |
| 2026-05-07 19:19 | 55.50908 | 48.20951 | 19271 ft | 398 kts | 287° |
| 2026-05-07 19:19 | 55.51717 | 48.16237 | 19523 ft | 398 kts | 286° |
| 2026-05-07 19:19 | 55.52519 | 48.11560 | 19772 ft | 399 kts | 286° |
| 2026-05-07 19:20 | 55.53313 | 48.06914 | 20198 ft | 398 kts | 286° |
| 2026-05-07 19:20 | 55.54111 | 48.02231 | 20704 ft | 405 kts | 286° |
| 2026-05-07 19:20 | 55.54924 | 47.97446 | 21213 ft | 409 kts | 286° |
| 2026-05-07 19:20 | 55.55738 | 47.92641 | 21721 ft | 411 kts | 286° |
| 2026-05-07 19:21 | 55.56559 | 47.87785 | 22238 ft | 415 kts | 286° |
| 2026-05-07 19:21 | 55.57384 | 47.82890 | 22752 ft | 417 kts | 286° |
| 2026-05-07 19:21 | 55.58211 | 47.77978 | 23265 ft | 421 kts | 286° |
| 2026-05-07 19:21 | 55.59045 | 47.72998 | 23772 ft | 427 kts | 286° |
| 2026-05-07 19:22 | 55.59883 | 47.67988 | 24452 ft | 428 kts | 286° |
| 2026-05-07 19:22 | 55.60740 | 47.62846 | 24978 ft | 433 kts | 286° |
| 2026-05-07 19:22 | 55.61578 | 47.57801 | 25593 ft | 435 kts | 286° |
| 2026-05-07 19:22 | 55.62429 | 47.52665 | 26091 ft | 439 kts | 286° |
| 2026-05-07 19:23 | 55.63291 | 47.47443 | 26620 ft | 442 kts | 286° |
| 2026-05-07 19:23 | 55.64151 | 47.42226 | 27148 ft | 445 kts | 286° |
| 2026-05-07 19:23 | 55.65020 | 47.36934 | 27656 ft | 448 kts | 287° |
| 2026-05-07 19:23 | 55.65895 | 47.31588 | 28014 ft | 454 kts | 286° |
| 2026-05-07 19:24 | 55.66766 | 47.26250 | 28566 ft | 455 kts | 286° |
| 2026-05-07 19:24 | 55.67655 | 47.20787 | 28986 ft | 459 kts | 286° |
| 2026-05-07 19:24 | 55.68530 | 47.15397 | 29437 ft | 461 kts | 286° |
| 2026-05-07 19:24 | 55.69412 | 47.09943 | 29863 ft | 464 kts | 286° |
| 2026-05-07 19:25 | 55.70312 | 47.04371 | 30254 ft | 467 kts | 286° |
| 2026-05-07 19:25 | 55.71199 | 46.98859 | 30732 ft | 468 kts | 286° |
| 2026-05-07 19:25 | 55.72089 | 46.93308 | 31227 ft | 469 kts | 287° |
| 2026-05-07 19:25 | 55.72966 | 46.87823 | 32006 ft | 463 kts | 287° |
| 2026-05-07 19:26 | 55.73841 | 46.82332 | 32402 ft | 465 kts | 287° |
| 2026-05-07 19:26 | 55.74708 | 46.76875 | 33106 ft | 460 kts | 287° |
| 2026-05-07 19:26 | 55.75570 | 46.71428 | 33530 ft | 460 kts | 287° |
| 2026-05-07 19:26 | 55.76424 | 46.66016 | 34076 ft | 457 kts | 287° |
| 2026-05-07 19:27 | 55.77297 | 46.60467 | 34470 ft | 458 kts | 287° |
| 2026-05-07 19:27 | 55.78139 | 46.55093 | 34948 ft | 456 kts | 287° |
| 2026-05-07 19:27 | 55.78969 | 46.49598 | 35196 ft | 457 kts | 284° |
| 2026-05-07 19:27 | 55.79409 | 46.44036 | 35632 ft | 455 kts | 276° |
| 2026-05-07 19:28 | 55.79628 | 46.38424 | 35784 ft | 458 kts | 275° |
| 2026-05-07 19:28 | 55.79841 | 46.32794 | 36181 ft | 455 kts | 274° |
| 2026-05-07 19:28 | 55.80040 | 46.27208 | 36437 ft | 455 kts | 274° |
| 2026-05-07 19:28 | 55.80230 | 46.21599 | 36743 ft | 454 kts | 274° |
| 2026-05-07 19:29 | 55.80413 | 46.16041 | 37086 ft | 453 kts | 274° |
| 2026-05-07 19:29 | 55.80591 | 46.10469 | 37487 ft | 450 kts | 274° |
| 2026-05-07 19:29 | 55.80764 | 46.04958 | 37737 ft | 451 kts | 273° |
| 2026-05-07 19:29 | 55.80933 | 45.99421 | 37945 ft | 450 kts | 273° |
| 2026-05-07 19:30 | 55.81263 | 45.88341 | 37946 ft | 446 kts | 273° |
| 2026-05-07 19:30 | 55.81581 | 45.77349 | 37932 ft | 448 kts | 273° |
| 2026-05-07 19:31 | 55.81888 | 45.66328 | 37935 ft | 448 kts | 273° |
| 2026-05-07 19:31 | 55.82186 | 45.55315 | 37934 ft | 449 kts | 273° |
| 2026-05-07 19:32 | 55.82473 | 45.44286 | 37925 ft | 448 kts | 273° |
| 2026-05-07 19:32 | 55.82751 | 45.33280 | 38202 ft | 441 kts | 272° |
| 2026-05-07 19:33 | 55.82885 | 45.27818 | 38492 ft | 438 kts | 272° |
| 2026-05-07 19:33 | 55.83015 | 45.22454 | 38774 ft | 436 kts | 272° |
| 2026-05-07 19:33 | 55.83141 | 45.17140 | 39040 ft | 433 kts | 272° |
| 2026-05-07 19:33 | 55.83263 | 45.11851 | 39323 ft | 429 kts | 272° |
| 2026-05-07 19:34 | 55.83384 | 45.06550 | 39617 ft | 426 kts | 272° |
| 2026-05-07 19:34 | 55.83500 | 45.01362 | 39918 ft | 423 kts | 272° |
| 2026-05-07 19:34 | 55.83732 | 44.90859 | 39927 ft | 427 kts | 272° |
| 2026-05-07 19:35 | 55.83962 | 44.80280 | 39944 ft | 432 kts | 272° |
| 2026-05-07 19:35 | 55.84184 | 44.69590 | 39925 ft | 437 kts | 272° |
| 2026-05-07 19:36 | 55.84397 | 44.58833 | 39930 ft | 440 kts | 272° |
| 2026-05-07 19:36 | 55.84604 | 44.47933 | 39916 ft | 444 kts | 272° |
| 2026-05-07 19:37 | 55.84802 | 44.36954 | 39916 ft | 445 kts | 272° |
| 2026-05-07 19:37 | 55.84992 | 44.25965 | 39906 ft | 444 kts | 271° |
| 2026-05-07 19:38 | 55.85170 | 44.15011 | 39902 ft | 447 kts | 271° |
| 2026-05-07 19:38 | 55.85341 | 44.03910 | 39898 ft | 449 kts | 271° |
| 2026-05-07 19:39 | 55.85502 | 43.92851 | 39896 ft | 449 kts | 271° |
| 2026-05-07 19:39 | 55.85652 | 43.81812 | 39891 ft | 448 kts | 271° |
| 2026-05-07 19:40 | 55.85794 | 43.70712 | 39905 ft | 449 kts | 271° |
| 2026-05-07 19:40 | 55.85925 | 43.59644 | 39879 ft | 449 kts | 271° |
| 2026-05-07 19:41 | 55.86047 | 43.48548 | 39884 ft | 450 kts | 271° |
| 2026-05-07 19:41 | 55.86166 | 43.37465 | 39892 ft | 449 kts | 271° |
| 2026-05-07 19:42 | 55.86276 | 43.26239 | 39878 ft | 449 kts | 270° |
| 2026-05-07 19:42 | 55.86374 | 43.15235 | 39880 ft | 448 kts | 270° |
| 2026-05-07 19:43 | 55.86463 | 43.04129 | 39868 ft | 450 kts | 270° |
| 2026-05-07 19:43 | 55.86542 | 42.92976 | 39884 ft | 450 kts | 270° |
| 2026-05-07 19:44 | 55.86611 | 42.81802 | 39886 ft | 451 kts | 270° |
| 2026-05-07 19:44 | 55.86670 | 42.70711 | 39884 ft | 449 kts | 270° |
| 2026-05-07 19:45 | 55.86719 | 42.59613 | 39887 ft | 451 kts | 270° |
| 2026-05-07 19:45 | 55.86758 | 42.48448 | 39890 ft | 449 kts | 270° |
| 2026-05-07 19:46 | 55.86787 | 42.37317 | 39886 ft | 451 kts | 270° |
| 2026-05-07 19:46 | 55.86805 | 42.26146 | 39891 ft | 450 kts | 269° |
| 2026-05-07 19:47 | 55.86814 | 42.15020 | 39891 ft | 451 kts | 269° |
| 2026-05-07 19:47 | 55.86813 | 42.03822 | 39882 ft | 451 kts | 269° |
| 2026-05-07 19:48 | 55.86801 | 41.92658 | 39880 ft | 450 kts | 269° |
| 2026-05-07 19:48 | 55.86779 | 41.81486 | 39882 ft | 450 kts | 269° |
| 2026-05-07 19:49 | 55.86544 | 41.70393 | 39881 ft | 449 kts | 266° |
| 2026-05-07 19:49 | 55.86210 | 41.59262 | 39885 ft | 451 kts | 266° |
| 2026-05-07 19:50 | 55.85870 | 41.48187 | 39888 ft | 450 kts | 266° |
| 2026-05-07 19:50 | 55.85521 | 41.37125 | 39892 ft | 449 kts | 266° |
| 2026-05-07 19:51 | 55.85163 | 41.26049 | 39901 ft | 448 kts | 266° |
| 2026-05-07 19:51 | 55.84794 | 41.14976 | 39890 ft | 446 kts | 266° |
| 2026-05-07 19:52 | 55.84420 | 41.04024 | 39901 ft | 446 kts | 266° |
| 2026-05-07 19:52 | 55.84036 | 40.93074 | 39901 ft | 445 kts | 266° |
| 2026-05-07 19:53 | 55.83639 | 40.82030 | 39900 ft | 448 kts | 266° |
| 2026-05-07 19:53 | 55.83232 | 40.71007 | 39897 ft | 447 kts | 266° |
| 2026-05-07 19:54 | 55.82811 | 40.59947 | 39905 ft | 448 kts | 265° |
| 2026-05-07 19:54 | 55.82370 | 40.48926 | 39901 ft | 449 kts | 265° |
| 2026-05-07 19:55 | 55.81915 | 40.37814 | 39677 ft | 450 kts | 265° |
| 2026-05-07 19:55 | 55.81684 | 40.32261 | 39541 ft | 449 kts | 265° |
| 2026-05-07 19:55 | 55.81454 | 40.26777 | 39407 ft | 448 kts | 264° |
| 2026-05-07 19:56 | 55.81217 | 40.21217 | 39277 ft | 448 kts | 265° |
| 2026-05-07 19:56 | 55.80980 | 40.15700 | 39145 ft | 449 kts | 265° |
| 2026-05-07 19:56 | 55.80740 | 40.10179 | 39012 ft | 449 kts | 265° |
| 2026-05-07 19:56 | 55.80497 | 40.04653 | 38877 ft | 450 kts | 265° |
| 2026-05-07 19:57 | 55.80251 | 39.99108 | 38736 ft | 451 kts | 265° |
| 2026-05-07 19:57 | 55.80003 | 39.93565 | 38609 ft | 450 kts | 265° |
| 2026-05-07 19:57 | 55.79754 | 39.88044 | 38578 ft | 437 kts | 265° |
| 2026-05-07 19:57 | 55.79512 | 39.82741 | 38470 ft | 425 kts | 265° |
| 2026-05-07 19:58 | 55.79214 | 39.77568 | 38062 ft | 415 kts | 263° |
| 2026-05-07 19:58 | 55.78878 | 39.72571 | 37530 ft | 408 kts | 263° |
| 2026-05-07 19:58 | 55.78547 | 39.67586 | 36815 ft | 407 kts | 264° |
| 2026-05-07 19:58 | 55.78215 | 39.62627 | 36228 ft | 406 kts | 264° |
| 2026-05-07 19:59 | 55.77884 | 39.57711 | 35662 ft | 405 kts | 264° |
| 2026-05-07 19:59 | 55.77548 | 39.52728 | 35089 ft | 403 kts | 264° |
| 2026-05-07 19:59 | 55.77214 | 39.47827 | 34454 ft | 402 kts | 265° |
| 2026-05-07 19:59 | 55.76878 | 39.42887 | 33743 ft | 401 kts | 265° |
| 2026-05-07 20:00 | 55.76546 | 39.38063 | 33052 ft | 399 kts | 264° |
| 2026-05-07 20:00 | 55.76202 | 39.33123 | 32341 ft | 398 kts | 263° |
| 2026-05-07 20:00 | 55.75862 | 39.28268 | 31647 ft | 396 kts | 263° |
| 2026-05-07 20:00 | 55.75521 | 39.23425 | 30949 ft | 395 kts | 263° |
| 2026-05-07 20:01 | 55.75177 | 39.18570 | 30357 ft | 402 kts | 263° |
| 2026-05-07 20:01 | 55.74820 | 39.13562 | 29807 ft | 427 kts | 263° |
| 2026-05-07 20:01 | 55.74435 | 39.08193 | 29399 ft | 431 kts | 263° |
| 2026-05-07 20:01 | 55.74062 | 39.03037 | 29394 ft | 412 kts | 263° |
| 2026-05-07 20:02 | 55.73700 | 38.98049 | 28942 ft | 404 kts | 263° |
| 2026-05-07 20:02 | 55.73341 | 38.93149 | 28244 ft | 401 kts | 262° |
| 2026-05-07 20:02 | 55.72963 | 38.88219 | 27559 ft | 398 kts | 262° |
| 2026-05-07 20:02 | 55.72590 | 38.83398 | 26883 ft | 394 kts | 262° |
| 2026-05-07 20:03 | 55.72218 | 38.78615 | 26196 ft | 391 kts | 262° |
| 2026-05-07 20:03 | 55.71849 | 38.73880 | 25593 ft | 386 kts | 261° |
| 2026-05-07 20:03 | 55.71481 | 38.69181 | 25003 ft | 381 kts | 262° |
| 2026-05-07 20:03 | 55.71136 | 38.64595 | 24430 ft | 377 kts | 262° |
| 2026-05-07 20:04 | 55.70792 | 38.60033 | 23852 ft | 373 kts | 261° |
| 2026-05-07 20:04 | 55.70451 | 38.55524 | 23283 ft | 368 kts | 261° |
| 2026-05-07 20:04 | 55.70108 | 38.51041 | 22717 ft | 364 kts | 262° |
| 2026-05-07 20:04 | 55.69771 | 38.46633 | 22148 ft | 361 kts | 262° |
| 2026-05-07 20:05 | 55.69439 | 38.42287 | 21635 ft | 356 kts | 262° |
| 2026-05-07 20:05 | 55.69107 | 38.37964 | 21199 ft | 348 kts | 262° |
| 2026-05-07 20:05 | 55.68786 | 38.33785 | 20789 ft | 340 kts | 261° |
| 2026-05-07 20:05 | 55.68471 | 38.29722 | 20404 ft | 328 kts | 261° |
| 2026-05-07 20:06 | 55.68164 | 38.25776 | 20019 ft | 329 kts | 261° |
| 2026-05-07 20:06 | 55.67846 | 38.21712 | 19769 ft | 330 kts | 261° |
| 2026-05-07 20:06 | 55.67532 | 38.17802 | 19516 ft | 318 kts | 261° |
| 2026-05-07 20:06 | 55.67228 | 38.14024 | 19241 ft | 304 kts | 261° |
| 2026-05-07 20:07 | 55.66929 | 38.10338 | 18969 ft | 299 kts | 261° |
| 2026-05-07 20:07 | 55.66636 | 38.06740 | 18907 ft | 298 kts | 261° |
| 2026-05-07 20:07 | 55.66334 | 38.03052 | 18916 ft | 305 kts | 261° |
| 2026-05-07 20:07 | 55.66024 | 37.99284 | 18919 ft | 314 kts | 261° |
| 2026-05-07 20:08 | 55.65730 | 37.95705 | 18903 ft | 306 kts | 261° |
| 2026-05-07 20:08 | 55.65423 | 37.91987 | 18902 ft | 302 kts | 261° |
| 2026-05-07 20:08 | 55.65088 | 37.88309 | 18913 ft | 304 kts | 255° |
| 2026-05-07 20:08 | 55.64291 | 37.84839 | 18880 ft | 308 kts | 242° |
| 2026-05-07 20:09 | 55.63236 | 37.81574 | 18576 ft | 309 kts | 242° |
| 2026-05-07 20:09 | 55.62175 | 37.78275 | 18300 ft | 303 kts | 241° |
| 2026-05-07 20:09 | 55.61138 | 37.75080 | 18029 ft | 299 kts | 241° |
| 2026-05-07 20:10 | 55.59101 | 37.68845 | 17534 ft | 298 kts | 241° |
| 2026-05-07 20:10 | 55.58064 | 37.65688 | 17289 ft | 297 kts | 241° |
| 2026-05-07 20:10 | 55.57047 | 37.62596 | 17047 ft | 294 kts | 241° |
| 2026-05-07 20:10 | 55.55849 | 37.59707 | 16826 ft | 294 kts | 226° |
| 2026-05-07 20:11 | 55.54173 | 37.57672 | 16578 ft | 302 kts | 208° |
| 2026-05-07 20:11 | 55.52181 | 37.56659 | 16132 ft | 311 kts | 193° |
| 2026-05-07 20:11 | 55.50075 | 37.56146 | 15683 ft | 305 kts | 193° |
| 2026-05-07 20:11 | 55.48011 | 37.55638 | 15230 ft | 300 kts | 192° |
| 2026-05-07 20:12 | 55.45976 | 37.55159 | 14891 ft | 293 kts | 192° |
| 2026-05-07 20:12 | 55.43999 | 37.54705 | 14765 ft | 290 kts | 192° |
| 2026-05-07 20:12 | 55.41943 | 37.54231 | 14268 ft | 309 kts | 192° |
| 2026-05-07 20:12 | 55.39826 | 37.53768 | 14085 ft | 296 kts | 192° |
| 2026-05-07 20:13 | 55.37855 | 37.53344 | 14072 ft | 281 kts | 192° |
| 2026-05-07 20:13 | 55.35957 | 37.52934 | 13838 ft | 273 kts | 192° |
| 2026-05-07 20:13 | 55.34040 | 37.52824 | 13594 ft | 282 kts | 182° |
| 2026-05-07 20:13 | 55.32048 | 37.53006 | 13172 ft | 288 kts | 183° |
| 2026-05-07 20:14 | 55.30067 | 37.53173 | 12861 ft | 285 kts | 182° |
| 2026-05-07 20:14 | 55.28125 | 37.53345 | 12491 ft | 279 kts | 183° |
| 2026-05-07 20:14 | 55.26228 | 37.53163 | 12147 ft | 269 kts | 201° |
| 2026-05-07 20:14 | 55.24544 | 37.51895 | 11788 ft | 263 kts | 219° |
| 2026-05-07 20:15 | 55.23341 | 37.49550 | 11200 ft | 259 kts | 246° |
| 2026-05-07 20:15 | 55.22939 | 37.46539 | 10553 ft | 261 kts | 272° |
| 2026-05-07 20:15 | 55.23429 | 37.43487 | 9869 ft | 265 kts | 298° |
| 2026-05-07 20:15 | 55.24721 | 37.41170 | 9165 ft | 273 kts | 326° |
| 2026-05-07 20:16 | 55.26512 | 37.40050 | 8468 ft | 278 kts | 342° |
| 2026-05-07 20:16 | 55.28344 | 37.39142 | 7723 ft | 272 kts | 334° |
| 2026-05-07 20:16 | 55.30058 | 37.37929 | 6988 ft | 267 kts | 330° |
| 2026-05-07 20:16 | 55.31638 | 37.36408 | 6280 ft | 255 kts | 314° |
| 2026-05-07 20:17 | 55.32858 | 37.34404 | 5796 ft | 243 kts | 310° |
| 2026-05-07 20:17 | 55.34028 | 37.32419 | 5461 ft | 225 kts | 310° |
| 2026-05-07 20:17 | 55.35110 | 37.30526 | 5238 ft | 220 kts | 309° |
| 2026-05-07 20:17 | 55.36183 | 37.28598 | 5039 ft | 225 kts | 309° |
| 2026-05-07 20:18 | 55.37260 | 37.26647 | 5002 ft | 220 kts | 309° |
| 2026-05-07 20:18 | 55.38324 | 37.24687 | 4709 ft | 225 kts | 309° |
| 2026-05-07 20:18 | 55.39382 | 37.22734 | 4437 ft | 219 kts | 309° |
| 2026-05-07 20:18 | 55.40426 | 37.20799 | 4202 ft | 217 kts | 309° |
| 2026-05-07 20:19 | 55.41477 | 37.18844 | 3950 ft | 220 kts | 309° |
| 2026-05-07 20:19 | 55.42513 | 37.16916 | 3712 ft | 219 kts | 309° |
| 2026-05-07 20:19 | 55.43550 | 37.14992 | 3572 ft | 215 kts | 311° |
| 2026-05-07 20:19 | 55.44685 | 37.13228 | 3313 ft | 218 kts | 316° |
| 2026-05-07 20:20 | 55.45826 | 37.11510 | 3186 ft | 214 kts | 316° |
| 2026-05-07 20:20 | 55.46933 | 37.09843 | 3120 ft | 201 kts | 316° |
| 2026-05-07 20:20 | 55.47970 | 37.08286 | 3087 ft | 192 kts | 316° |
| 2026-05-07 20:20 | 55.49015 | 37.06791 | 3050 ft | 192 kts | 326° |
| 2026-05-07 20:21 | 55.50223 | 37.05940 | 3066 ft | 181 kts | 336° |
| 2026-05-07 20:21 | 55.51357 | 37.05254 | 3036 ft | 166 kts | 334° |
| 2026-05-07 20:21 | 55.52393 | 37.04622 | 3051 ft | 155 kts | 334° |
| 2026-05-07 20:21 | 55.53513 | 37.04333 | 3030 ft | 176 kts | 5° |
| 2026-05-07 20:22 | 55.54655 | 37.05297 | 2829 ft | 194 kts | 39° |
| 2026-05-07 20:22 | 55.55270 | 37.07375 | 2610 ft | 194 kts | 76° |
| 2026-05-07 20:22 | 55.55563 | 37.09616 | 2375 ft | 180 kts | 70° |
| 2026-05-07 20:22 | 55.55941 | 37.11628 | 2160 ft | 162 kts | 68° |
| 2026-05-07 20:23 | 55.56309 | 37.13415 | 1921 ft | 149 kts | 65° |
| 2026-05-07 20:23 | 55.56671 | 37.15080 | 1734 ft | 146 kts | 65° |
| 2026-05-07 20:23 | 55.57038 | 37.16736 | 1555 ft | 147 kts | 65° |
| 2026-05-07 20:23 | 55.57401 | 37.18404 | 1355 ft | 146 kts | 66° |
| 2026-05-07 20:24 | 55.57773 | 37.20027 | 1173 ft | 143 kts | 64° |
| 2026-05-07 20:24 | 55.58128 | 37.21580 | 963 ft | 142 kts | 66° |
| 2026-05-07 20:24 | 55.58484 | 37.23160 | 796 ft | 137 kts | 67° |
| 2026-05-07 20:24 | 55.58812 | 37.24606 | 695 ft | 131 kts | 66° |
| 2026-05-07 20:25 | 55.59105 | 37.25906 | 694 ft | 93 kts | 68° |
| 2026-05-07 20:25 | 55.59290 | 37.26731 | 694 ft | 62 kts | 68° |
| 2026-05-07 20:25 | 55.59412 | 37.27267 | 694 ft | 35 kts | 62° |
| 2026-05-07 20:25 | 55.59553 | 37.27545 | 694 ft | 28 kts | 38° |
| 2026-05-07 20:26 | 55.59639 | 37.27666 | 694 ft | 4 kts | 38° |
| 2026-05-07 20:26 | 55.59639 | 37.27667 | 694 ft | 0 kts | 38° |
| 2026-05-07 20:26 | 55.59655 | 37.27689 | 694 ft | 5 kts | 38° |
| 2026-05-07 20:27 | 55.59689 | 37.27736 | 694 ft | 7 kts | 38° |
| 2026-05-07 20:27 | 55.59722 | 37.27764 | 694 ft | 5 kts | 15° |
| 2026-05-07 20:27 | 55.59766 | 37.27785 | 694 ft | 7 kts | 15° |
| 2026-05-07 20:27 | 55.59817 | 37.27809 | 694 ft | 7 kts | 15° |
| 2026-05-07 20:28 | 55.59870 | 37.27839 | 694 ft | 8 kts | 19° |
| 2026-05-07 20:28 | 55.59915 | 37.27866 | 694 ft | 6 kts | 19° |
| 2026-05-07 20:28 | 55.59947 | 37.27919 | 694 ft | 6 kts | 79° |
| 2026-05-07 20:28 | 55.59941 | 37.28006 | 694 ft | 7 kts | 99° |
| 2026-05-07 20:29 | 55.59935 | 37.28100 | 694 ft | 6 kts | 93° |
| 2026-05-07 20:29 | 55.59936 | 37.28155 | 694 ft | 4 kts | 86° |
| 2026-05-07 20:29 | 55.59947 | 37.28189 | 694 ft | 3 kts | 26° |
| 2026-05-07 20:29 | 55.59975 | 37.28191 | 694 ft | 3 kts | 354° |
| 2026-05-07 20:30 | 55.59998 | 37.28188 | 694 ft | 2 kts | 355° |
| 2026-05-07 20:30 | 55.60006 | 37.28186 | 694 ft | 0 kts | 355° |